This is the latest recevied weather packets stored in our database for station/object OM5AST-13. If no packets are shown the sender has not sent any weather packets the latest 10 day(s).
| Time | Temp. | Humidity | Pressure | Rain* | Wind** | Luminosity | Snow |
|---|---|---|---|---|---|---|---|
| 1788369835 | 28.89° C | 38% | - | 0 mm | - | 0 W/m² | - |
| 1788368635 | 30° C | 36% | - | 0 mm | - | 0 W/m² | - |
| 1788367436 | 28.33° C | 39% | - | 0 mm | - | 0 W/m² | - |
| 1788366235 | 27.78° C | 39% | - | 0 mm | - | 0 W/m² | - |
| 1788365035 | 27.78° C | 37% | - | 0 mm | - | 0 W/m² | - |
| 1788363835 | 28.33° C | 36% | - | 0 mm | - | 0 W/m² | - |
| 1788362635 | 28.89° C | 35% | - | 0 mm | - | 0 W/m² | - |
| 1788361435 | 31.11° C | 31% | - | 0 mm | - | 0 W/m² | - |
| 1788360235 | 32.78° C | 28% | - | 0 mm | - | 0 W/m² | - |
| 1788359035 | 32.78° C | 28% | - | 0 mm | - | 0 W/m² | - |
| 1788357836 | 35° C | 26% | - | 0 mm | - | 0 W/m² | - |
| 1788356635 | 35° C | 27% | - | 0 mm | - | 0 W/m² | - |
| 1788355435 | 33.33° C | 29% | - | 0 mm | - | 0 W/m² | - |
| 1788354235 | 32.22° C | 30% | - | 0 mm | - | 0 W/m² | - |
| 1788353035 | 30.56° C | 32% | - | 0 mm | - | 0 W/m² | - |
| 1788351835 | 28.89° C | 35% | - | 0 mm | - | 0 W/m² | - |
| 1788350635 | 28.33° C | 36% | - | 0 mm | - | 0 W/m² | - |
| 1788349435 | 27.78° C | 39% | - | 0 mm | - | 0 W/m² | - |
| 1788348235 | 27.22° C | 41% | - | 0 mm | - | 0 W/m² | - |
| 1788347035 | 26.67° C | 41% | - | 0 mm | - | 0 W/m² | - |
| 1788345835 | 26.11° C | 42% | - | 0 mm | - | 0 W/m² | - |
| 1788344635 | 25.56° C | 43% | - | 0 mm | - | 0 W/m² | - |
| 1788343435 | 25° C | 45% | - | 0 mm | - | 0 W/m² | - |
| 1788342235 | 25° C | 46% | - | 0 mm | - | 0 W/m² | - |
| 1788341035 | 23.89° C | 47% | - | 0 mm | - | 0 W/m² | - |
* Rain latest hour (hover to see other rain measurements)
** Current wind speed in m/s (hover to see current wind gust speed)